sensor_id;sensor_type;location;lat;lon;timestamp;P1;durP1;ratioP1;P2;durP2;ratioP2
47725;SDS011;33483;48.294;16.388;2022-07-29T00:02:04;6.80;;;3.90;;
47725;SDS011;33483;48.294;16.388;2022-07-29T00:04:33;9.32;;;3.47;;
47725;SDS011;33483;48.294;16.388;2022-07-29T00:07:02;7.07;;;3.75;;
47725;SDS011;33483;48.294;16.388;2022-07-29T00:09:32;6.20;;;3.47;;
47725;SDS011;33483;48.294;16.388;2022-07-29T00:12:17;4.93;;;3.50;;
47725;SDS011;33483;48.294;16.388;2022-07-29T00:14:53;8.73;;;3.63;;
47725;SDS011;33483;48.294;16.388;2022-07-29T00:17:21;6.45;;;3.47;;
47725;SDS011;33483;48.294;16.388;2022-07-29T00:19:49;8.75;;;3.72;;
47725;SDS011;33483;48.294;16.388;2022-07-29T00:22:16;8.60;;;3.50;;
47725;SDS011;33483;48.294;16.388;2022-07-29T00:24:43;5.35;;;3.40;;
47725;SDS011;33483;48.294;16.388;2022-07-29T00:27:10;4.90;;;3.35;;
47725;SDS011;33483;48.294;16.388;2022-07-29T00:29:40;5.95;;;3.55;;
47725;SDS011;33483;48.294;16.388;2022-07-29T00:32:09;7.38;;;3.70;;
47725;SDS011;33483;48.294;16.388;2022-07-29T00:34:39;6.78;;;3.92;;
47725;SDS011;33483;48.294;16.388;2022-07-29T00:37:25;8.00;;;4.10;;
47725;SDS011;33483;48.294;16.388;2022-07-29T00:39:52;5.03;;;3.53;;
47725;SDS011;33483;48.294;16.388;2022-07-29T00:42:19;6.55;;;3.85;;
47725;SDS011;33483;48.294;16.388;2022-07-29T00:44:46;4.55;;;2.97;;
47725;SDS011;33483;48.294;16.388;2022-07-29T00:47:13;8.70;;;3.78;;
47725;SDS011;33483;48.294;16.388;2022-07-29T00:49:41;6.30;;;4.10;;
47725;SDS011;33483;48.294;16.388;2022-07-29T00:52:11;6.40;;;3.95;;
47725;SDS011;33483;48.294;16.388;2022-07-29T00:54:42;5.55;;;3.65;;
47725;SDS011;33483;48.294;16.388;2022-07-29T00:57:11;7.28;;;3.67;;
47725;SDS011;33483;48.294;16.388;2022-07-29T00:59:39;8.07;;;3.35;;
47725;SDS011;33483;48.294;16.388;2022-07-29T01:02:11;8.07;;;4.10;;
47725;SDS011;33483;48.294;16.388;2022-07-29T01:04:38;5.00;;;3.78;;
47725;SDS011;33483;48.294;16.388;2022-07-29T01:07:08;5.28;;;3.53;;
47725;SDS011;33483;48.294;16.388;2022-07-29T01:09:36;7.63;;;3.92;;
47725;SDS011;33483;48.294;16.388;2022-07-29T01:12:13;6.05;;;3.38;;
47725;SDS011;33483;48.294;16.388;2022-07-29T01:14:46;9.02;;;4.18;;
47725;SDS011;33483;48.294;16.388;2022-07-29T01:20:26;6.07;;;3.75;;
47725;SDS011;33483;48.294;16.388;2022-07-29T01:28:45;6.30;;;3.97;;
47725;SDS011;33483;48.294;16.388;2022-07-29T01:31:22;6.85;;;3.95;;
47725;SDS011;33483;48.294;16.388;2022-07-29T01:34:01;6.40;;;4.32;;
47725;SDS011;33483;48.294;16.388;2022-07-29T01:39:18;9.30;;;4.68;;
47725;SDS011;33483;48.294;16.388;2022-07-29T01:41:57;7.65;;;4.10;;
47725;SDS011;33483;48.294;16.388;2022-07-29T01:44:34;10.75;;;4.60;;
47725;SDS011;33483;48.294;16.388;2022-07-29T01:47:14;6.93;;;3.75;;
47725;SDS011;33483;48.294;16.388;2022-07-29T01:49:47;8.20;;;4.35;;
47725;SDS011;33483;48.294;16.388;2022-07-29T01:52:25;5.82;;;4.32;;
47725;SDS011;33483;48.294;16.388;2022-07-29T01:54:58;7.25;;;4.40;;
47725;SDS011;33483;48.294;16.388;2022-07-29T01:57:34;6.95;;;4.65;;
47725;SDS011;33483;48.294;16.388;2022-07-29T02:00:04;9.05;;;4.15;;
47725;SDS011;33483;48.294;16.388;2022-07-29T02:02:39;6.25;;;4.47;;
47725;SDS011;33483;48.294;16.388;2022-07-29T02:05:11;7.45;;;4.40;;
47725;SDS011;33483;48.294;16.388;2022-07-29T02:07:42;7.65;;;4.57;;
47725;SDS011;33483;48.294;16.388;2022-07-29T02:10:15;7.28;;;4.40;;
47725;SDS011;33483;48.294;16.388;2022-07-29T02:12:51;7.03;;;4.57;;
47725;SDS011;33483;48.294;16.388;2022-07-29T02:15:22;8.18;;;4.60;;
47725;SDS011;33483;48.294;16.388;2022-07-29T02:17:57;7.13;;;4.65;;
47725;SDS011;33483;48.294;16.388;2022-07-29T02:20:30;7.57;;;4.80;;
47725;SDS011;33483;48.294;16.388;2022-07-29T02:22:59;7.18;;;4.70;;
47725;SDS011;33483;48.294;16.388;2022-07-29T02:25:29;8.48;;;5.10;;
47725;SDS011;33483;48.294;16.388;2022-07-29T02:28:06;6.35;;;4.50;;
47725;SDS011;33483;48.294;16.388;2022-07-29T02:30:39;7.50;;;4.78;;
47725;SDS011;33483;48.294;16.388;2022-07-29T02:33:12;7.82;;;4.93;;
47725;SDS011;33483;48.294;16.388;2022-07-29T02:35:43;9.93;;;4.53;;
47725;SDS011;33483;48.294;16.388;2022-07-29T02:38:16;7.53;;;4.90;;
47725;SDS011;33483;48.294;16.388;2022-07-29T02:41:04;5.70;;;4.50;;
47725;SDS011;33483;48.294;16.388;2022-07-29T02:43:34;6.97;;;4.60;;
47725;SDS011;33483;48.294;16.388;2022-07-29T02:46:02;5.70;;;4.30;;
47725;SDS011;33483;48.294;16.388;2022-07-29T02:51:41;9.15;;;4.88;;
47725;SDS011;33483;48.294;16.388;2022-07-29T02:54:26;10.55;;;4.95;;
47725;SDS011;33483;48.294;16.388;2022-07-29T02:56:53;5.95;;;4.50;;
47725;SDS011;33483;48.294;16.388;2022-07-29T02:59:26;8.40;;;4.88;;
47725;SDS011;33483;48.294;16.388;2022-07-29T03:01:57;10.05;;;4.93;;
47725;SDS011;33483;48.294;16.388;2022-07-29T03:04:27;10.98;;;5.53;;
47725;SDS011;33483;48.294;16.388;2022-07-29T03:06:56;8.00;;;5.25;;
47725;SDS011;33483;48.294;16.388;2022-07-29T03:09:26;7.38;;;4.88;;
47725;SDS011;33483;48.294;16.388;2022-07-29T03:11:55;8.75;;;5.43;;
47725;SDS011;33483;48.294;16.388;2022-07-29T03:14:23;6.75;;;5.28;;
47725;SDS011;33483;48.294;16.388;2022-07-29T03:16:50;11.82;;;5.07;;
47725;SDS011;33483;48.294;16.388;2022-07-29T03:19:19;7.38;;;5.43;;
47725;SDS011;33483;48.294;16.388;2022-07-29T03:21:47;7.45;;;4.72;;
47725;SDS011;33483;48.294;16.388;2022-07-29T03:24:51;6.28;;;5.30;;
47725;SDS011;33483;48.294;16.388;2022-07-29T03:27:12;8.17;;;5.73;;
47725;SDS011;33483;48.294;16.388;2022-07-29T03:29:40;9.00;;;5.65;;
47725;SDS011;33483;48.294;16.388;2022-07-29T03:32:15;10.52;;;5.50;;
47725;SDS011;33483;48.294;16.388;2022-07-29T03:34:49;7.85;;;5.60;;
47725;SDS011;33483;48.294;16.388;2022-07-29T03:37:18;7.82;;;6.10;;
47725;SDS011;33483;48.294;16.388;2022-07-29T03:39:45;9.20;;;5.90;;
47725;SDS011;33483;48.294;16.388;2022-07-29T03:42:14;7.82;;;5.50;;
47725;SDS011;33483;48.294;16.388;2022-07-29T03:44:47;7.60;;;5.25;;
47725;SDS011;33483;48.294;16.388;2022-07-29T03:47:16;8.35;;;5.35;;
47725;SDS011;33483;48.294;16.388;2022-07-29T03:49:49;7.88;;;5.38;;
47725;SDS011;33483;48.294;16.388;2022-07-29T03:52:20;7.03;;;5.93;;
47725;SDS011;33483;48.294;16.388;2022-07-29T03:54:47;10.43;;;5.47;;
47725;SDS011;33483;48.294;16.388;2022-07-29T03:57:15;9.10;;;5.63;;
47725;SDS011;33483;48.294;16.388;2022-07-29T03:59:43;9.68;;;5.47;;
47725;SDS011;33483;48.294;16.388;2022-07-29T04:02:11;8.65;;;5.90;;
47725;SDS011;33483;48.294;16.388;2022-07-29T04:04:48;7.57;;;5.28;;
47725;SDS011;33483;48.294;16.388;2022-07-29T04:07:18;10.15;;;5.55;;
47725;SDS011;33483;48.294;16.388;2022-07-29T04:09:48;7.93;;;5.10;;
47725;SDS011;33483;48.294;16.388;2022-07-29T04:12:18;9.63;;;5.35;;
47725;SDS011;33483;48.294;16.388;2022-07-29T04:14:45;7.57;;;5.20;;
47725;SDS011;33483;48.294;16.388;2022-07-29T04:17:12;8.40;;;5.13;;
47725;SDS011;33483;48.294;16.388;2022-07-29T04:19:39;7.93;;;5.38;;
47725;SDS011;33483;48.294;16.388;2022-07-29T04:22:06;11.95;;;5.95;;
47725;SDS011;33483;48.294;16.388;2022-07-29T04:24:34;6.72;;;5.50;;
47725;SDS011;33483;48.294;16.388;2022-07-29T04:27:10;6.63;;;4.90;;
47725;SDS011;33483;48.294;16.388;2022-07-29T04:29:38;7.80;;;5.57;;
47725;SDS011;33483;48.294;16.388;2022-07-29T04:32:25;8.95;;;5.53;;
47725;SDS011;33483;48.294;16.388;2022-07-29T04:34:53;9.23;;;5.90;;
47725;SDS011;33483;48.294;16.388;2022-07-29T04:37:20;9.93;;;5.53;;
47725;SDS011;33483;48.294;16.388;2022-07-29T04:39:50;9.40;;;5.85;;
47725;SDS011;33483;48.294;16.388;2022-07-29T04:42:19;13.13;;;5.20;;
47725;SDS011;33483;48.294;16.388;2022-07-29T04:44:55;9.38;;;4.60;;
47725;SDS011;33483;48.294;16.388;2022-07-29T04:47:22;7.65;;;5.43;;
47725;SDS011;33483;48.294;16.388;2022-07-29T04:49:50;7.38;;;5.30;;
47725;SDS011;33483;48.294;16.388;2022-07-29T04:52:19;9.25;;;5.40;;
47725;SDS011;33483;48.294;16.388;2022-07-29T04:54:49;6.88;;;5.13;;
47725;SDS011;33483;48.294;16.388;2022-07-29T04:57:18;11.80;;;5.07;;
47725;SDS011;33483;48.294;16.388;2022-07-29T04:59:46;9.45;;;5.35;;
47725;SDS011;33483;48.294;16.388;2022-07-29T05:02:13;7.95;;;5.30;;
47725;SDS011;33483;48.294;16.388;2022-07-29T05:04:42;6.18;;;4.75;;
47725;SDS011;33483;48.294;16.388;2022-07-29T05:07:10;6.80;;;5.30;;
47725;SDS011;33483;48.294;16.388;2022-07-29T05:09:41;8.95;;;4.85;;
47725;SDS011;33483;48.294;16.388;2022-07-29T05:12:08;9.75;;;5.22;;
47725;SDS011;33483;48.294;16.388;2022-07-29T05:14:39;8.52;;;4.80;;
47725;SDS011;33483;48.294;16.388;2022-07-29T05:17:06;8.38;;;4.45;;
47725;SDS011;33483;48.294;16.388;2022-07-29T05:19:33;8.13;;;4.70;;
47725;SDS011;33483;48.294;16.388;2022-07-29T05:22:06;6.80;;;4.72;;
47725;SDS011;33483;48.294;16.388;2022-07-29T05:24:33;9.38;;;4.22;;
47725;SDS011;33483;48.294;16.388;2022-07-29T05:27:00;8.40;;;4.10;;
47725;SDS011;33483;48.294;16.388;2022-07-29T05:29:27;8.15;;;4.13;;
47725;SDS011;33483;48.294;16.388;2022-07-29T05:32:11;5.57;;;4.13;;
47725;SDS011;33483;48.294;16.388;2022-07-29T05:34:39;7.95;;;4.00;;
47725;SDS011;33483;48.294;16.388;2022-07-29T05:37:24;6.13;;;3.80;;
47725;SDS011;33483;48.294;16.388;2022-07-29T05:39:51;6.20;;;4.00;;
47725;SDS011;33483;48.294;16.388;2022-07-29T05:42:26;6.15;;;4.13;;
47725;SDS011;33483;48.294;16.388;2022-07-29T05:44:53;6.50;;;4.20;;
47725;SDS011;33483;48.294;16.388;2022-07-29T05:47:23;5.95;;;4.10;;
47725;SDS011;33483;48.294;16.388;2022-07-29T05:49:51;12.20;;;4.05;;
47725;SDS011;33483;48.294;16.388;2022-07-29T05:52:18;9.25;;;4.15;;
47725;SDS011;33483;48.294;16.388;2022-07-29T05:54:48;5.97;;;3.80;;
47725;SDS011;33483;48.294;16.388;2022-07-29T05:57:18;11.23;;;4.05;;
47725;SDS011;33483;48.294;16.388;2022-07-29T05:59:47;6.18;;;4.15;;
47725;SDS011;33483;48.294;16.388;2022-07-29T06:02:16;9.07;;;4.28;;
47725;SDS011;33483;48.294;16.388;2022-07-29T06:04:43;9.95;;;3.72;;
47725;SDS011;33483;48.294;16.388;2022-07-29T06:07:10;4.80;;;3.60;;
47725;SDS011;33483;48.294;16.388;2022-07-29T06:09:38;6.38;;;3.60;;
47725;SDS011;33483;48.294;16.388;2022-07-29T06:12:05;7.10;;;4.15;;
47725;SDS011;33483;48.294;16.388;2022-07-29T06:14:35;6.93;;;3.80;;
47725;SDS011;33483;48.294;16.388;2022-07-29T06:17:02;7.20;;;3.92;;
47725;SDS011;33483;48.294;16.388;2022-07-29T06:19:29;7.97;;;3.70;;
47725;SDS011;33483;48.294;16.388;2022-07-29T06:21:57;5.00;;;3.67;;
47725;SDS011;33483;48.294;16.388;2022-07-29T06:24:24;7.03;;;4.43;;
47725;SDS011;33483;48.294;16.388;2022-07-29T06:26:51;6.50;;;3.83;;
47725;SDS011;33483;48.294;16.388;2022-07-29T06:29:18;8.52;;;4.13;;
47725;SDS011;33483;48.294;16.388;2022-07-29T06:31:45;5.45;;;3.63;;
47725;SDS011;33483;48.294;16.388;2022-07-29T06:34:12;6.35;;;4.25;;
47725;SDS011;33483;48.294;16.388;2022-07-29T06:36:43;6.60;;;3.88;;
47725;SDS011;33483;48.294;16.388;2022-07-29T06:39:11;5.60;;;3.97;;
47725;SDS011;33483;48.294;16.388;2022-07-29T06:41:41;7.20;;;4.38;;
47725;SDS011;33483;48.294;16.388;2022-07-29T06:44:12;6.82;;;4.10;;
47725;SDS011;33483;48.294;16.388;2022-07-29T06:46:40;11.80;;;4.32;;
47725;SDS011;33483;48.294;16.388;2022-07-29T06:49:08;6.88;;;4.47;;
47725;SDS011;33483;48.294;16.388;2022-07-29T06:51:35;10.25;;;3.90;;
47725;SDS011;33483;48.294;16.388;2022-07-29T06:54:02;9.27;;;4.05;;
47725;SDS011;33483;48.294;16.388;2022-07-29T06:56:33;10.15;;;3.83;;
47725;SDS011;33483;48.294;16.388;2022-07-29T06:59:06;7.22;;;4.35;;
47725;SDS011;33483;48.294;16.388;2022-07-29T07:01:37;10.63;;;4.63;;
47725;SDS011;33483;48.294;16.388;2022-07-29T07:04:06;6.25;;;4.00;;
47725;SDS011;33483;48.294;16.388;2022-07-29T07:06:33;5.65;;;3.60;;
47725;SDS011;33483;48.294;16.388;2022-07-29T07:09:01;5.60;;;3.78;;
47725;SDS011;33483;48.294;16.388;2022-07-29T07:11:28;10.45;;;4.15;;
47725;SDS011;33483;48.294;16.388;2022-07-29T07:13:55;7.50;;;3.60;;
47725;SDS011;33483;48.294;16.388;2022-07-29T07:16:28;6.35;;;3.88;;
47725;SDS011;33483;48.294;16.388;2022-07-29T07:18:55;6.75;;;3.92;;
47725;SDS011;33483;48.294;16.388;2022-07-29T07:21:23;8.80;;;4.05;;
47725;SDS011;33483;48.294;16.388;2022-07-29T07:23:50;7.43;;;4.07;;
47725;SDS011;33483;48.294;16.388;2022-07-29T07:26:19;7.05;;;3.95;;
47725;SDS011;33483;48.294;16.388;2022-07-29T07:28:49;7.65;;;3.63;;
47725;SDS011;33483;48.294;16.388;2022-07-29T07:31:18;8.48;;;4.13;;
47725;SDS011;33483;48.294;16.388;2022-07-29T07:33:46;8.50;;;3.65;;
47725;SDS011;33483;48.294;16.388;2022-07-29T07:36:14;4.32;;;3.25;;
47725;SDS011;33483;48.294;16.388;2022-07-29T07:38:41;6.53;;;3.40;;
47725;SDS011;33483;48.294;16.388;2022-07-29T07:41:08;6.18;;;4.20;;
47725;SDS011;33483;48.294;16.388;2022-07-29T07:43:35;7.30;;;4.10;;
47725;SDS011;33483;48.294;16.388;2022-07-29T07:46:02;9.52;;;3.83;;
47725;SDS011;33483;48.294;16.388;2022-07-29T07:48:29;6.43;;;3.55;;
47725;SDS011;33483;48.294;16.388;2022-07-29T07:50:56;7.00;;;4.13;;
47725;SDS011;33483;48.294;16.388;2022-07-29T07:53:26;10.20;;;4.07;;
47725;SDS011;33483;48.294;16.388;2022-07-29T07:55:53;7.25;;;3.38;;
47725;SDS011;33483;48.294;16.388;2022-07-29T07:58:38;11.00;;;4.22;;
47725;SDS011;33483;48.294;16.388;2022-07-29T08:01:08;7.05;;;4.00;;
47725;SDS011;33483;48.294;16.388;2022-07-29T08:03:36;8.45;;;3.70;;
47725;SDS011;33483;48.294;16.388;2022-07-29T08:06:04;6.50;;;3.60;;
47725;SDS011;33483;48.294;16.388;2022-07-29T08:08:32;10.43;;;3.70;;
47725;SDS011;33483;48.294;16.388;2022-07-29T08:10:59;9.27;;;3.90;;
47725;SDS011;33483;48.294;16.388;2022-07-29T08:13:35;11.52;;;4.07;;
47725;SDS011;33483;48.294;16.388;2022-07-29T08:16:05;8.95;;;4.10;;
47725;SDS011;33483;48.294;16.388;2022-07-29T08:18:44;5.20;;;3.78;;
47725;SDS011;33483;48.294;16.388;2022-07-29T08:21:13;9.18;;;3.72;;
47725;SDS011;33483;48.294;16.388;2022-07-29T08:23:42;10.10;;;3.63;;
47725;SDS011;33483;48.294;16.388;2022-07-29T08:26:41;6.68;;;3.40;;
47725;SDS011;33483;48.294;16.388;2022-07-29T08:29:09;8.52;;;3.80;;
47725;SDS011;33483;48.294;16.388;2022-07-29T08:31:37;8.10;;;3.00;;
47725;SDS011;33483;48.294;16.388;2022-07-29T08:34:07;8.30;;;3.05;;
47725;SDS011;33483;48.294;16.388;2022-07-29T08:36:34;6.50;;;3.40;;
47725;SDS011;33483;48.294;16.388;2022-07-29T08:39:02;8.40;;;4.28;;
47725;SDS011;33483;48.294;16.388;2022-07-29T08:41:30;5.93;;;3.38;;
47725;SDS011;33483;48.294;16.388;2022-07-29T08:43:57;7.05;;;3.72;;
47725;SDS011;33483;48.294;16.388;2022-07-29T08:46:24;4.75;;;3.25;;
47725;SDS011;33483;48.294;16.388;2022-07-29T08:48:52;5.07;;;3.10;;
47725;SDS011;33483;48.294;16.388;2022-07-29T08:51:20;9.73;;;3.60;;
47725;SDS011;33483;48.294;16.388;2022-07-29T08:53:48;5.25;;;2.78;;
47725;SDS011;33483;48.294;16.388;2022-07-29T08:56:17;7.13;;;2.80;;
47725;SDS011;33483;48.294;16.388;2022-07-29T08:58:46;11.27;;;3.10;;
47725;SDS011;33483;48.294;16.388;2022-07-29T09:01:22;3.25;;;2.60;;
47725;SDS011;33483;48.294;16.388;2022-07-29T09:04:10;6.00;;;3.10;;
47725;SDS011;33483;48.294;16.388;2022-07-29T09:06:41;6.93;;;3.20;;
47725;SDS011;33483;48.294;16.388;2022-07-29T09:09:14;4.13;;;3.00;;
47725;SDS011;33483;48.294;16.388;2022-07-29T09:11:42;4.53;;;2.85;;
47725;SDS011;33483;48.294;16.388;2022-07-29T09:14:10;3.90;;;2.85;;
47725;SDS011;33483;48.294;16.388;2022-07-29T09:19:29;4.18;;;3.00;;
47725;SDS011;33483;48.294;16.388;2022-07-29T09:21:59;5.20;;;2.85;;
47725;SDS011;33483;48.294;16.388;2022-07-29T09:24:46;4.93;;;3.05;;
47725;SDS011;33483;48.294;16.388;2022-07-29T09:30:05;6.45;;;2.83;;
47725;SDS011;33483;48.294;16.388;2022-07-29T09:32:33;5.43;;;2.83;;
47725;SDS011;33483;48.294;16.388;2022-07-29T09:35:25;4.85;;;2.85;;
47725;SDS011;33483;48.294;16.388;2022-07-29T09:37:53;4.25;;;2.90;;
47725;SDS011;33483;48.294;16.388;2022-07-29T09:40:27;8.73;;;3.45;;
47725;SDS011;33483;48.294;16.388;2022-07-29T09:42:55;6.97;;;3.00;;
47725;SDS011;33483;48.294;16.388;2022-07-29T09:45:31;5.40;;;3.00;;
47725;SDS011;33483;48.294;16.388;2022-07-29T09:48:17;6.05;;;2.67;;
47725;SDS011;33483;48.294;16.388;2022-07-29T09:50:49;6.13;;;3.28;;
47725;SDS011;33483;48.294;16.388;2022-07-29T09:53:33;4.65;;;2.90;;
47725;SDS011;33483;48.294;16.388;2022-07-29T09:56:01;4.17;;;2.80;;
47725;SDS011;33483;48.294;16.388;2022-07-29T09:58:28;4.95;;;3.05;;
47725;SDS011;33483;48.294;16.388;2022-07-29T10:00:56;4.97;;;3.20;;
47725;SDS011;33483;48.294;16.388;2022-07-29T10:03:25;5.13;;;2.97;;
47725;SDS011;33483;48.294;16.388;2022-07-29T10:06:06;11.38;;;3.10;;
47725;SDS011;33483;48.294;16.388;2022-07-29T10:08:35;8.38;;;2.78;;
47725;SDS011;33483;48.294;16.388;2022-07-29T10:11:21;7.00;;;3.00;;
47725;SDS011;33483;48.294;16.388;2022-07-29T10:13:48;7.85;;;3.08;;
47725;SDS011;33483;48.294;16.388;2022-07-29T10:16:16;5.47;;;3.42;;
47725;SDS011;33483;48.294;16.388;2022-07-29T10:18:46;7.07;;;3.30;;
47725;SDS011;33483;48.294;16.388;2022-07-29T10:21:14;4.43;;;2.92;;
47725;SDS011;33483;48.294;16.388;2022-07-29T10:24:01;7.25;;;2.95;;
47725;SDS011;33483;48.294;16.388;2022-07-29T10:26:29;5.05;;;3.08;;
47725;SDS011;33483;48.294;16.388;2022-07-29T10:28:57;7.30;;;3.25;;
47725;SDS011;33483;48.294;16.388;2022-07-29T10:31:26;6.63;;;3.03;;
47725;SDS011;33483;48.294;16.388;2022-07-29T10:34:07;6.90;;;3.60;;
47725;SDS011;33483;48.294;16.388;2022-07-29T10:36:53;5.18;;;3.15;;
47725;SDS011;33483;48.294;16.388;2022-07-29T10:42:18;6.05;;;2.70;;
47725;SDS011;33483;48.294;16.388;2022-07-29T10:45:00;5.88;;;2.95;;
47725;SDS011;33483;48.294;16.388;2022-07-29T10:47:31;7.60;;;2.90;;
47725;SDS011;33483;48.294;16.388;2022-07-29T10:50:02;5.53;;;3.00;;
47725;SDS011;33483;48.294;16.388;2022-07-29T10:55:32;6.00;;;3.10;;
47725;SDS011;33483;48.294;16.388;2022-07-29T11:00:53;9.98;;;2.90;;
47725;SDS011;33483;48.294;16.388;2022-07-29T11:06:15;9.35;;;2.97;;
47725;SDS011;33483;48.294;16.388;2022-07-29T11:11:46;6.45;;;3.20;;
47725;SDS011;33483;48.294;16.388;2022-07-29T11:14:18;7.88;;;3.00;;
47725;SDS011;33483;48.294;16.388;2022-07-29T11:17:09;8.27;;;3.15;;
47725;SDS011;33483;48.294;16.388;2022-07-29T11:19:39;5.15;;;2.70;;
47725;SDS011;33483;48.294;16.388;2022-07-29T11:22:32;6.53;;;3.22;;
47725;SDS011;33483;48.294;16.388;2022-07-29T11:25:16;10.77;;;2.63;;
47725;SDS011;33483;48.294;16.388;2022-07-29T11:28:13;5.38;;;3.10;;
47725;SDS011;33483;48.294;16.388;2022-07-29T11:31:05;4.78;;;3.05;;
47725;SDS011;33483;48.294;16.388;2022-07-29T11:33:36;8.02;;;3.22;;
47725;SDS011;33483;48.294;16.388;2022-07-29T11:36:22;6.25;;;2.97;;
47725;SDS011;33483;48.294;16.388;2022-07-29T11:39:24;6.78;;;2.97;;
47725;SDS011;33483;48.294;16.388;2022-07-29T11:47:56;6.40;;;3.00;;
47725;SDS011;33483;48.294;16.388;2022-07-29T11:50:47;5.32;;;3.05;;
47725;SDS011;33483;48.294;16.388;2022-07-29T11:53:15;11.50;;;2.88;;
47725;SDS011;33483;48.294;16.388;2022-07-29T11:55:45;6.38;;;3.28;;
47725;SDS011;33483;48.294;16.388;2022-07-29T11:58:24;5.93;;;3.00;;
47725;SDS011;33483;48.294;16.388;2022-07-29T12:00:55;5.05;;;3.13;;
47725;SDS011;33483;48.294;16.388;2022-07-29T12:03:27;6.70;;;3.05;;
47725;SDS011;33483;48.294;16.388;2022-07-29T12:06:02;5.60;;;3.08;;
47725;SDS011;33483;48.294;16.388;2022-07-29T12:08:42;9.48;;;3.10;;
47725;SDS011;33483;48.294;16.388;2022-07-29T12:11:17;7.25;;;3.35;;
47725;SDS011;33483;48.294;16.388;2022-07-29T12:13:50;7.93;;;3.22;;
47725;SDS011;33483;48.294;16.388;2022-07-29T12:16:19;6.55;;;3.28;;
47725;SDS011;33483;48.294;16.388;2022-07-29T12:19:01;4.97;;;3.38;;
47725;SDS011;33483;48.294;16.388;2022-07-29T12:21:48;4.65;;;3.00;;
47725;SDS011;33483;48.294;16.388;2022-07-29T12:24:25;6.95;;;3.15;;
47725;SDS011;33483;48.294;16.388;2022-07-29T12:26:57;6.85;;;3.30;;
47725;SDS011;33483;48.294;16.388;2022-07-29T12:29:26;8.75;;;3.38;;
47725;SDS011;33483;48.294;16.388;2022-07-29T12:32:01;7.15;;;3.20;;
47725;SDS011;33483;48.294;16.388;2022-07-29T12:34:30;5.30;;;3.17;;
47725;SDS011;33483;48.294;16.388;2022-07-29T12:36:58;8.50;;;3.50;;
47725;SDS011;33483;48.294;16.388;2022-07-29T12:39:28;6.72;;;3.28;;
47725;SDS011;33483;48.294;16.388;2022-07-29T12:41:55;7.20;;;3.47;;
47725;SDS011;33483;48.294;16.388;2022-07-29T12:47:12;6.35;;;3.75;;
47725;SDS011;33483;48.294;16.388;2022-07-29T12:49:42;5.85;;;3.72;;
47725;SDS011;33483;48.294;16.388;2022-07-29T12:54:58;9.77;;;3.72;;
47725;SDS011;33483;48.294;16.388;2022-07-29T12:57:26;6.40;;;3.22;;
47725;SDS011;33483;48.294;16.388;2022-07-29T13:02:32;6.38;;;3.17;;
47725;SDS011;33483;48.294;16.388;2022-07-29T13:05:01;6.88;;;3.40;;
47725;SDS011;33483;48.294;16.388;2022-07-29T13:07:31;6.43;;;3.60;;
47725;SDS011;33483;48.294;16.388;2022-07-29T13:10:20;4.65;;;3.33;;
47725;SDS011;33483;48.294;16.388;2022-07-29T13:13:11;9.20;;;3.60;;
47725;SDS011;33483;48.294;16.388;2022-07-29T13:15:41;5.65;;;3.60;;
47725;SDS011;33483;48.294;16.388;2022-07-29T13:20:55;13.88;;;3.72;;
47725;SDS011;33483;48.294;16.388;2022-07-29T13:23:22;7.40;;;3.55;;
47725;SDS011;33483;48.294;16.388;2022-07-29T13:25:49;5.17;;;3.47;;
47725;SDS011;33483;48.294;16.388;2022-07-29T13:28:17;5.00;;;3.15;;
47725;SDS011;33483;48.294;16.388;2022-07-29T13:30:46;5.65;;;3.35;;
47725;SDS011;33483;48.294;16.388;2022-07-29T13:33:16;8.30;;;3.90;;
47725;SDS011;33483;48.294;16.388;2022-07-29T13:35:43;9.43;;;3.58;;
47725;SDS011;33483;48.294;16.388;2022-07-29T13:38:14;8.88;;;3.75;;
47725;SDS011;33483;48.294;16.388;2022-07-29T13:40:41;5.57;;;3.30;;
47725;SDS011;33483;48.294;16.388;2022-07-29T13:43:11;5.50;;;3.40;;
47725;SDS011;33483;48.294;16.388;2022-07-29T13:45:38;5.25;;;3.50;;
47725;SDS011;33483;48.294;16.388;2022-07-29T13:48:08;10.85;;;4.20;;
47725;SDS011;33483;48.294;16.388;2022-07-29T13:50:35;10.00;;;3.72;;
47725;SDS011;33483;48.294;16.388;2022-07-29T13:53:03;6.85;;;3.40;;
47725;SDS011;33483;48.294;16.388;2022-07-29T13:55:33;6.05;;;4.03;;
47725;SDS011;33483;48.294;16.388;2022-07-29T13:58:00;8.13;;;4.22;;
47725;SDS011;33483;48.294;16.388;2022-07-29T14:00:32;5.70;;;3.70;;
47725;SDS011;33483;48.294;16.388;2022-07-29T14:02:59;7.07;;;4.20;;
47725;SDS011;33483;48.294;16.388;2022-07-29T14:05:26;6.78;;;3.72;;
47725;SDS011;33483;48.294;16.388;2022-07-29T14:07:53;5.63;;;3.72;;
47725;SDS011;33483;48.294;16.388;2022-07-29T14:10:20;7.72;;;3.60;;
47725;SDS011;33483;48.294;16.388;2022-07-29T14:12:47;6.30;;;3.80;;
47725;SDS011;33483;48.294;16.388;2022-07-29T14:15:14;7.40;;;4.13;;
47725;SDS011;33483;48.294;16.388;2022-07-29T14:17:41;4.63;;;3.97;;
47725;SDS011;33483;48.294;16.388;2022-07-29T14:20:11;6.35;;;4.15;;
47725;SDS011;33483;48.294;16.388;2022-07-29T14:22:38;6.22;;;4.10;;
47725;SDS011;33483;48.294;16.388;2022-07-29T14:25:10;11.93;;;4.68;;
47725;SDS011;33483;48.294;16.388;2022-07-29T14:27:41;6.72;;;4.78;;
47725;SDS011;33483;48.294;16.388;2022-07-29T14:30:09;10.98;;;5.30;;
47725;SDS011;33483;48.294;16.388;2022-07-29T14:32:37;7.28;;;4.70;;
47725;SDS011;33483;48.294;16.388;2022-07-29T14:35:04;8.63;;;5.10;;
47725;SDS011;33483;48.294;16.388;2022-07-29T14:37:32;9.52;;;5.07;;
47725;SDS011;33483;48.294;16.388;2022-07-29T14:40:06;11.80;;;5.78;;
47725;SDS011;33483;48.294;16.388;2022-07-29T14:42:35;12.88;;;5.90;;
47725;SDS011;33483;48.294;16.388;2022-07-29T14:45:06;7.22;;;5.68;;
47725;SDS011;33483;48.294;16.388;2022-07-29T14:47:37;9.82;;;6.43;;
47725;SDS011;33483;48.294;16.388;2022-07-29T14:50:05;13.68;;;6.28;;
47725;SDS011;33483;48.294;16.388;2022-07-29T14:52:33;12.05;;;6.80;;
47725;SDS011;33483;48.294;16.388;2022-07-29T14:55:03;10.93;;;7.10;;
47725;SDS011;33483;48.294;16.388;2022-07-29T14:57:43;8.93;;;6.75;;
47725;SDS011;33483;48.294;16.388;2022-07-29T15:00:11;8.55;;;6.75;;
47725;SDS011;33483;48.294;16.388;2022-07-29T15:02:39;9.57;;;7.13;;
47725;SDS011;33483;48.294;16.388;2022-07-29T15:05:29;10.77;;;7.60;;
47725;SDS011;33483;48.294;16.388;2022-07-29T15:07:56;11.82;;;7.93;;
47725;SDS011;33483;48.294;16.388;2022-07-29T15:10:25;11.85;;;7.70;;
47725;SDS011;33483;48.294;16.388;2022-07-29T15:12:58;13.20;;;7.72;;
47725;SDS011;33483;48.294;16.388;2022-07-29T15:15:27;13.18;;;7.75;;
47725;SDS011;33483;48.294;16.388;2022-07-29T15:17:58;11.40;;;7.47;;
47725;SDS011;33483;48.294;16.388;2022-07-29T15:20:28;12.05;;;7.70;;
47725;SDS011;33483;48.294;16.388;2022-07-29T15:22:55;12.52;;;7.32;;
47725;SDS011;33483;48.294;16.388;2022-07-29T15:25:23;11.00;;;6.80;;
47725;SDS011;33483;48.294;16.388;2022-07-29T15:27:53;7.50;;;6.70;;
47725;SDS011;33483;48.294;16.388;2022-07-29T15:30:26;9.40;;;7.57;;
47725;SDS011;33483;48.294;16.388;2022-07-29T15:33:04;10.80;;;7.55;;
47725;SDS011;33483;48.294;16.388;2022-07-29T15:35:31;9.25;;;7.78;;
47725;SDS011;33483;48.294;16.388;2022-07-29T15:38:06;10.70;;;7.63;;
47725;SDS011;33483;48.294;16.388;2022-07-29T15:40:33;9.35;;;7.70;;
47725;SDS011;33483;48.294;16.388;2022-07-29T15:43:03;10.38;;;7.90;;
47725;SDS011;33483;48.294;16.388;2022-07-29T15:45:34;10.70;;;7.93;;
47725;SDS011;33483;48.294;16.388;2022-07-29T15:48:06;10.77;;;7.75;;
47725;SDS011;33483;48.294;16.388;2022-07-29T15:50:40;10.83;;;7.97;;